sensor_id;sensor_type;location;lat;lon;timestamp;P1;durP1;ratioP1;P2;durP2;ratioP2
33824;SDS011;20127;48.962;8.342;2023-11-21T00:01:22;12.18;;;3.45;;
33824;SDS011;20127;48.962;8.342;2023-11-21T00:04:23;14.45;;;2.92;;
33824;SDS011;20127;48.962;8.342;2023-11-21T00:07:25;7.80;;;3.15;;
33824;SDS011;20127;48.962;8.342;2023-11-21T00:10:27;8.25;;;3.70;;
33824;SDS011;20127;48.962;8.342;2023-11-21T00:13:29;6.07;;;2.35;;
33824;SDS011;20127;48.962;8.342;2023-11-21T00:16:32;7.13;;;2.35;;
33824;SDS011;20127;48.962;8.342;2023-11-21T00:19:34;10.23;;;2.40;;
33824;SDS011;20127;48.962;8.342;2023-11-21T00:22:35;12.73;;;2.83;;
33824;SDS011;20127;48.962;8.342;2023-11-21T00:25:37;7.43;;;2.03;;
33824;SDS011;20127;48.962;8.342;2023-11-21T00:28:40;10.82;;;3.53;;
33824;SDS011;20127;48.962;8.342;2023-11-21T00:31:43;4.88;;;2.95;;
33824;SDS011;20127;48.962;8.342;2023-11-21T00:34:44;4.43;;;2.60;;
33824;SDS011;20127;48.962;8.342;2023-11-21T00:37:46;9.75;;;4.10;;
33824;SDS011;20127;48.962;8.342;2023-11-21T00:40:49;9.05;;;2.83;;
33824;SDS011;20127;48.962;8.342;2023-11-21T00:43:51;12.20;;;2.75;;
33824;SDS011;20127;48.962;8.342;2023-11-21T00:46:54;3.70;;;2.03;;
33824;SDS011;20127;48.962;8.342;2023-11-21T00:49:56;6.45;;;2.53;;
33824;SDS011;20127;48.962;8.342;2023-11-21T00:52:58;6.05;;;1.92;;
33824;SDS011;20127;48.962;8.342;2023-11-21T00:55:59;7.32;;;2.45;;
33824;SDS011;20127;48.962;8.342;2023-11-21T00:59:02;8.27;;;2.30;;
33824;SDS011;20127;48.962;8.342;2023-11-21T01:02:06;4.57;;;2.17;;
33824;SDS011;20127;48.962;8.342;2023-11-21T01:05:10;7.60;;;3.28;;
33824;SDS011;20127;48.962;8.342;2023-11-21T01:08:12;4.60;;;2.20;;
33824;SDS011;20127;48.962;8.342;2023-11-21T01:11:14;8.00;;;2.95;;
33824;SDS011;20127;48.962;8.342;2023-11-21T01:14:15;10.63;;;2.90;;
33824;SDS011;20127;48.962;8.342;2023-11-21T01:17:19;9.13;;;1.90;;
33824;SDS011;20127;48.962;8.342;2023-11-21T01:20:22;6.78;;;2.22;;
33824;SDS011;20127;48.962;8.342;2023-11-21T01:23:24;6.25;;;2.10;;
33824;SDS011;20127;48.962;8.342;2023-11-21T01:26:26;8.65;;;2.25;;
33824;SDS011;20127;48.962;8.342;2023-11-21T01:29:28;9.52;;;2.35;;
33824;SDS011;20127;48.962;8.342;2023-11-21T01:32:31;3.20;;;1.88;;
33824;SDS011;20127;48.962;8.342;2023-11-21T01:35:33;6.03;;;1.85;;
33824;SDS011;20127;48.962;8.342;2023-11-21T01:38:35;7.25;;;1.88;;
33824;SDS011;20127;48.962;8.342;2023-11-21T01:41:37;12.50;;;2.38;;
33824;SDS011;20127;48.962;8.342;2023-11-21T01:44:39;5.90;;;2.45;;
33824;SDS011;20127;48.962;8.342;2023-11-21T01:47:42;13.25;;;2.53;;
33824;SDS011;20127;48.962;8.342;2023-11-21T01:50:45;4.85;;;2.55;;
33824;SDS011;20127;48.962;8.342;2023-11-21T01:53:48;5.07;;;3.00;;
33824;SDS011;20127;48.962;8.342;2023-11-21T01:56:51;8.10;;;1.83;;
33824;SDS011;20127;48.962;8.342;2023-11-21T01:59:53;10.65;;;2.45;;
33824;SDS011;20127;48.962;8.342;2023-11-21T02:02:57;6.68;;;2.40;;
33824;SDS011;20127;48.962;8.342;2023-11-21T02:05:59;7.38;;;1.92;;
33824;SDS011;20127;48.962;8.342;2023-11-21T02:09:01;11.35;;;4.22;;
33824;SDS011;20127;48.962;8.342;2023-11-21T02:12:04;11.32;;;2.85;;
33824;SDS011;20127;48.962;8.342;2023-11-21T02:15:08;17.60;;;2.10;;
33824;SDS011;20127;48.962;8.342;2023-11-21T02:18:16;4.30;;;1.70;;
33824;SDS011;20127;48.962;8.342;2023-11-21T02:21:18;6.97;;;2.67;;
33824;SDS011;20127;48.962;8.342;2023-11-21T02:24:21;8.30;;;1.90;;
33824;SDS011;20127;48.962;8.342;2023-11-21T02:27:23;8.73;;;2.22;;
33824;SDS011;20127;48.962;8.342;2023-11-21T02:30:27;3.72;;;1.83;;
33824;SDS011;20127;48.962;8.342;2023-11-21T02:33:31;6.53;;;2.20;;
33824;SDS011;20127;48.962;8.342;2023-11-21T02:36:33;8.48;;;2.22;;
33824;SDS011;20127;48.962;8.342;2023-11-21T02:39:38;6.90;;;2.88;;
33824;SDS011;20127;48.962;8.342;2023-11-21T02:42:40;5.75;;;2.78;;
33824;SDS011;20127;48.962;8.342;2023-11-21T02:45:41;16.58;;;5.28;;
33824;SDS011;20127;48.962;8.342;2023-11-21T02:48:43;11.50;;;2.40;;
33824;SDS011;20127;48.962;8.342;2023-11-21T02:51:45;4.53;;;2.78;;
33824;SDS011;20127;48.962;8.342;2023-11-21T02:54:48;5.00;;;1.83;;
33824;SDS011;20127;48.962;8.342;2023-11-21T02:57:49;3.85;;;1.65;;
33824;SDS011;20127;48.962;8.342;2023-11-21T03:00:51;6.20;;;3.17;;
33824;SDS011;20127;48.962;8.342;2023-11-21T03:03:54;5.10;;;1.80;;
33824;SDS011;20127;48.962;8.342;2023-11-21T03:06:56;13.10;;;3.00;;
33824;SDS011;20127;48.962;8.342;2023-11-21T03:09:59;16.20;;;3.65;;
33824;SDS011;20127;48.962;8.342;2023-11-21T03:13:01;8.13;;;4.82;;
33824;SDS011;20127;48.962;8.342;2023-11-21T03:16:03;7.80;;;2.47;;
33824;SDS011;20127;48.962;8.342;2023-11-21T03:19:06;10.98;;;2.42;;
33824;SDS011;20127;48.962;8.342;2023-11-21T03:22:08;7.65;;;2.20;;
33824;SDS011;20127;48.962;8.342;2023-11-21T03:25:12;5.60;;;3.65;;
33824;SDS011;20127;48.962;8.342;2023-11-21T03:28:14;9.45;;;2.55;;
33824;SDS011;20127;48.962;8.342;2023-11-21T03:31:16;9.43;;;2.25;;
33824;SDS011;20127;48.962;8.342;2023-11-21T03:34:22;9.35;;;2.47;;
33824;SDS011;20127;48.962;8.342;2023-11-21T03:37:25;10.40;;;2.43;;
33824;SDS011;20127;48.962;8.342;2023-11-21T03:40:29;6.70;;;2.20;;
33824;SDS011;20127;48.962;8.342;2023-11-21T03:43:31;8.90;;;2.80;;
33824;SDS011;20127;48.962;8.342;2023-11-21T03:46:33;12.38;;;2.60;;
33824;SDS011;20127;48.962;8.342;2023-11-21T03:49:35;3.10;;;1.90;;
33824;SDS011;20127;48.962;8.342;2023-11-21T03:52:36;8.35;;;2.90;;
33824;SDS011;20127;48.962;8.342;2023-11-21T03:55:40;8.18;;;2.65;;
33824;SDS011;20127;48.962;8.342;2023-11-21T03:58:41;4.00;;;1.95;;
33824;SDS011;20127;48.962;8.342;2023-11-21T04:01:43;9.05;;;3.00;;
33824;SDS011;20127;48.962;8.342;2023-11-21T04:04:45;9.85;;;2.88;;
33824;SDS011;20127;48.962;8.342;2023-11-21T04:07:47;12.23;;;2.83;;
33824;SDS011;20127;48.962;8.342;2023-11-21T04:10:50;6.82;;;2.53;;
33824;SDS011;20127;48.962;8.342;2023-11-21T04:13:53;8.80;;;2.95;;
33824;SDS011;20127;48.962;8.342;2023-11-21T04:16:55;9.07;;;2.60;;
33824;SDS011;20127;48.962;8.342;2023-11-21T04:19:56;10.43;;;3.03;;
33824;SDS011;20127;48.962;8.342;2023-11-21T04:22:58;11.50;;;2.47;;
33824;SDS011;20127;48.962;8.342;2023-11-21T04:26:01;7.40;;;2.60;;
33824;SDS011;20127;48.962;8.342;2023-11-21T04:29:03;5.90;;;2.38;;
33824;SDS011;20127;48.962;8.342;2023-11-21T04:32:05;8.23;;;2.63;;
33824;SDS011;20127;48.962;8.342;2023-11-21T04:35:08;6.43;;;3.13;;
33824;SDS011;20127;48.962;8.342;2023-11-21T04:38:10;10.00;;;4.53;;
33824;SDS011;20127;48.962;8.342;2023-11-21T04:41:13;8.07;;;4.22;;
33824;SDS011;20127;48.962;8.342;2023-11-21T04:44:14;9.55;;;3.22;;
33824;SDS011;20127;48.962;8.342;2023-11-21T04:47:17;7.50;;;3.17;;
33824;SDS011;20127;48.962;8.342;2023-11-21T04:50:19;7.57;;;2.97;;
33824;SDS011;20127;48.962;8.342;2023-11-21T04:53:21;5.55;;;3.00;;
33824;SDS011;20127;48.962;8.342;2023-11-21T04:56:24;6.32;;;2.55;;
33824;SDS011;20127;48.962;8.342;2023-11-21T04:59:26;12.52;;;4.78;;
33824;SDS011;20127;48.962;8.342;2023-11-21T05:02:28;7.10;;;2.90;;
33824;SDS011;20127;48.962;8.342;2023-11-21T05:05:29;10.10;;;3.22;;
33824;SDS011;20127;48.962;8.342;2023-11-21T05:08:31;6.38;;;2.88;;
33824;SDS011;20127;48.962;8.342;2023-11-21T05:11:35;13.43;;;4.90;;
33824;SDS011;20127;48.962;8.342;2023-11-21T05:14:36;7.97;;;4.45;;
33824;SDS011;20127;48.962;8.342;2023-11-21T05:17:38;5.78;;;3.30;;
33824;SDS011;20127;48.962;8.342;2023-11-21T05:20:41;13.43;;;4.60;;
33824;SDS011;20127;48.962;8.342;2023-11-21T05:23:43;8.00;;;3.80;;
33824;SDS011;20127;48.962;8.342;2023-11-21T05:26:47;7.93;;;3.72;;
33824;SDS011;20127;48.962;8.342;2023-11-21T05:29:49;9.05;;;4.13;;
33824;SDS011;20127;48.962;8.342;2023-11-21T05:32:51;10.77;;;3.63;;
33824;SDS011;20127;48.962;8.342;2023-11-21T05:35:54;6.85;;;4.60;;
33824;SDS011;20127;48.962;8.342;2023-11-21T05:38:56;12.52;;;5.15;;
33824;SDS011;20127;48.962;8.342;2023-11-21T05:42:00;11.52;;;4.45;;
33824;SDS011;20127;48.962;8.342;2023-11-21T05:45:02;10.50;;;4.45;;
33824;SDS011;20127;48.962;8.342;2023-11-21T05:48:09;9.68;;;4.47;;
33824;SDS011;20127;48.962;8.342;2023-11-21T05:51:11;7.57;;;5.10;;
33824;SDS011;20127;48.962;8.342;2023-11-21T05:54:14;9.57;;;4.50;;
33824;SDS011;20127;48.962;8.342;2023-11-21T05:57:18;9.57;;;4.53;;
33824;SDS011;20127;48.962;8.342;2023-11-21T06:00:20;7.00;;;3.78;;
33824;SDS011;20127;48.962;8.342;2023-11-21T06:03:22;7.78;;;4.85;;
33824;SDS011;20127;48.962;8.342;2023-11-21T06:06:25;7.30;;;4.38;;
33824;SDS011;20127;48.962;8.342;2023-11-21T06:09:26;9.75;;;4.85;;
33824;SDS011;20127;48.962;8.342;2023-11-21T06:12:30;9.15;;;5.00;;
33824;SDS011;20127;48.962;8.342;2023-11-21T06:15:35;10.23;;;4.97;;
33824;SDS011;20127;48.962;8.342;2023-11-21T06:18:37;6.32;;;5.53;;
33824;SDS011;20127;48.962;8.342;2023-11-21T06:21:39;8.20;;;4.47;;
33824;SDS011;20127;48.962;8.342;2023-11-21T06:24:40;8.48;;;4.30;;
33824;SDS011;20127;48.962;8.342;2023-11-21T06:27:44;14.50;;;5.75;;
33824;SDS011;20127;48.962;8.342;2023-11-21T06:30:47;8.75;;;5.53;;
33824;SDS011;20127;48.962;8.342;2023-11-21T06:33:50;12.52;;;7.00;;
33824;SDS011;20127;48.962;8.342;2023-11-21T06:36:52;11.88;;;7.55;;
33824;SDS011;20127;48.962;8.342;2023-11-21T06:39:54;8.30;;;5.88;;
33824;SDS011;20127;48.962;8.342;2023-11-21T06:42:59;10.60;;;6.78;;
33824;SDS011;20127;48.962;8.342;2023-11-21T06:46:01;11.98;;;7.75;;
33824;SDS011;20127;48.962;8.342;2023-11-21T06:49:04;11.25;;;7.55;;
33824;SDS011;20127;48.962;8.342;2023-11-21T06:52:06;13.98;;;6.45;;
33824;SDS011;20127;48.962;8.342;2023-11-21T06:55:08;12.45;;;7.07;;
33824;SDS011;20127;48.962;8.342;2023-11-21T06:58:12;11.20;;;7.03;;
33824;SDS011;20127;48.962;8.342;2023-11-21T07:01:14;16.88;;;7.72;;
33824;SDS011;20127;48.962;8.342;2023-11-21T07:04:16;18.13;;;8.48;;
33824;SDS011;20127;48.962;8.342;2023-11-21T07:07:18;15.18;;;8.07;;
33824;SDS011;20127;48.962;8.342;2023-11-21T07:10:20;19.95;;;7.95;;
33824;SDS011;20127;48.962;8.342;2023-11-21T07:13:23;14.82;;;8.00;;
33824;SDS011;20127;48.962;8.342;2023-11-21T07:16:26;18.65;;;9.13;;
33824;SDS011;20127;48.962;8.342;2023-11-21T07:19:27;15.40;;;10.40;;
33824;SDS011;20127;48.962;8.342;2023-11-21T07:22:29;20.63;;;8.82;;
33824;SDS011;20127;48.962;8.342;2023-11-21T07:25:31;15.20;;;8.75;;
33824;SDS011;20127;48.962;8.342;2023-11-21T07:28:34;15.98;;;8.30;;
33824;SDS011;20127;48.962;8.342;2023-11-21T07:31:36;17.80;;;8.30;;
33824;SDS011;20127;48.962;8.342;2023-11-21T07:34:38;14.45;;;8.50;;
33824;SDS011;20127;48.962;8.342;2023-11-21T07:37:40;16.40;;;8.68;;
33824;SDS011;20127;48.962;8.342;2023-11-21T07:40:42;23.77;;;12.05;;
33824;SDS011;20127;48.962;8.342;2023-11-21T07:43:45;19.10;;;10.52;;
33824;SDS011;20127;48.962;8.342;2023-11-21T07:46:47;15.30;;;9.73;;
33824;SDS011;20127;48.962;8.342;2023-11-21T07:49:49;16.13;;;9.77;;
33824;SDS011;20127;48.962;8.342;2023-11-21T07:52:51;19.92;;;11.25;;
33824;SDS011;20127;48.962;8.342;2023-11-21T07:55:54;30.20;;;15.52;;
33824;SDS011;20127;48.962;8.342;2023-11-21T07:58:57;22.67;;;11.52;;
33824;SDS011;20127;48.962;8.342;2023-11-21T08:01:59;23.42;;;12.52;;
33824;SDS011;20127;48.962;8.342;2023-11-21T08:05:00;19.20;;;9.77;;
33824;SDS011;20127;48.962;8.342;2023-11-21T08:08:02;19.65;;;13.10;;
33824;SDS011;20127;48.962;8.342;2023-11-21T08:11:04;20.92;;;11.05;;
33824;SDS011;20127;48.962;8.342;2023-11-21T08:14:09;20.95;;;11.32;;
33824;SDS011;20127;48.962;8.342;2023-11-21T08:17:11;14.63;;;9.75;;
33824;SDS011;20127;48.962;8.342;2023-11-21T08:20:14;16.10;;;9.85;;
33824;SDS011;20127;48.962;8.342;2023-11-21T08:23:17;12.05;;;8.65;;
33824;SDS011;20127;48.962;8.342;2023-11-21T08:26:19;19.83;;;10.20;;
33824;SDS011;20127;48.962;8.342;2023-11-21T08:29:22;18.10;;;8.98;;
33824;SDS011;20127;48.962;8.342;2023-11-21T08:32:24;14.90;;;10.18;;
33824;SDS011;20127;48.962;8.342;2023-11-21T08:35:25;14.35;;;9.80;;
33824;SDS011;20127;48.962;8.342;2023-11-21T08:38:27;13.75;;;8.38;;
33824;SDS011;20127;48.962;8.342;2023-11-21T08:41:29;14.80;;;9.45;;
33824;SDS011;20127;48.962;8.342;2023-11-21T08:44:32;14.40;;;9.23;;
33824;SDS011;20127;48.962;8.342;2023-11-21T08:47:33;14.23;;;10.68;;
33824;SDS011;20127;48.962;8.342;2023-11-21T08:50:36;17.30;;;9.55;;
33824;SDS011;20127;48.962;8.342;2023-11-21T08:53:38;18.20;;;9.75;;
33824;SDS011;20127;48.962;8.342;2023-11-21T08:56:40;12.88;;;9.15;;
33824;SDS011;20127;48.962;8.342;2023-11-21T08:59:43;25.83;;;9.98;;
33824;SDS011;20127;48.962;8.342;2023-11-21T09:02:44;17.70;;;11.35;;
33824;SDS011;20127;48.962;8.342;2023-11-21T09:05:46;17.40;;;11.30;;
33824;SDS011;20127;48.962;8.342;2023-11-21T09:08:48;17.65;;;10.68;;
33824;SDS011;20127;48.962;8.342;2023-11-21T09:11:50;17.60;;;10.38;;
33824;SDS011;20127;48.962;8.342;2023-11-21T09:14:53;18.25;;;10.18;;
33824;SDS011;20127;48.962;8.342;2023-11-21T09:17:55;13.43;;;9.50;;
33824;SDS011;20127;48.962;8.342;2023-11-21T09:20:56;15.23;;;8.77;;
33824;SDS011;20127;48.962;8.342;2023-11-21T09:23:58;16.90;;;10.80;;
33824;SDS011;20127;48.962;8.342;2023-11-21T09:27:00;15.75;;;9.75;;
33824;SDS011;20127;48.962;8.342;2023-11-21T09:30:03;15.57;;;9.65;;
33824;SDS011;20127;48.962;8.342;2023-11-21T09:33:09;14.73;;;9.07;;
33824;SDS011;20127;48.962;8.342;2023-11-21T09:36:11;18.75;;;9.75;;
33824;SDS011;20127;48.962;8.342;2023-11-21T09:39:14;16.67;;;10.18;;
33824;SDS011;20127;48.962;8.342;2023-11-21T09:42:17;13.50;;;10.68;;
33824;SDS011;20127;48.962;8.342;2023-11-21T09:45:27;19.50;;;13.20;;
33824;SDS011;20127;48.962;8.342;2023-11-21T09:48:31;19.35;;;12.50;;
33824;SDS011;20127;48.962;8.342;2023-11-21T09:51:35;18.20;;;11.63;;
33824;SDS011;20127;48.962;8.342;2023-11-21T09:54:38;20.10;;;12.32;;
33824;SDS011;20127;48.962;8.342;2023-11-21T09:57:40;22.70;;;12.73;;
33824;SDS011;20127;48.962;8.342;2023-11-21T10:00:45;22.02;;;13.60;;
33824;SDS011;20127;48.962;8.342;2023-11-21T10:03:48;21.25;;;11.90;;
33824;SDS011;20127;48.962;8.342;2023-11-21T10:06:50;22.63;;;13.52;;
33824;SDS011;20127;48.962;8.342;2023-11-21T10:09:52;22.10;;;12.60;;
33824;SDS011;20127;48.962;8.342;2023-11-21T10:12:56;17.85;;;12.00;;
33824;SDS011;20127;48.962;8.342;2023-11-21T10:16:04;16.60;;;10.23;;
33824;SDS011;20127;48.962;8.342;2023-11-21T10:19:09;17.27;;;11.63;;
33824;SDS011;20127;48.962;8.342;2023-11-21T10:22:16;18.77;;;13.63;;
33824;SDS011;20127;48.962;8.342;2023-11-21T10:25:19;15.05;;;11.57;;
33824;SDS011;20127;48.962;8.342;2023-11-21T10:28:22;22.90;;;10.85;;
33824;SDS011;20127;48.962;8.342;2023-11-21T10:31:25;16.35;;;11.77;;
33824;SDS011;20127;48.962;8.342;2023-11-21T10:34:28;14.38;;;12.98;;
33824;SDS011;20127;48.962;8.342;2023-11-21T10:37:30;16.50;;;11.32;;
33824;SDS011;20127;48.962;8.342;2023-11-21T10:40:31;18.23;;;9.57;;
33824;SDS011;20127;48.962;8.342;2023-11-21T10:43:33;14.13;;;8.13;;
33824;SDS011;20127;48.962;8.342;2023-11-21T10:46:37;12.05;;;8.27;;
33824;SDS011;20127;48.962;8.342;2023-11-21T10:49:40;12.38;;;8.13;;
33824;SDS011;20127;48.962;8.342;2023-11-21T10:52:42;12.05;;;9.27;;
33824;SDS011;20127;48.962;8.342;2023-11-21T10:55:47;13.18;;;9.10;;
33824;SDS011;20127;48.962;8.342;2023-11-21T10:58:49;17.02;;;9.73;;
33824;SDS011;20127;48.962;8.342;2023-11-21T11:01:52;13.07;;;7.78;;
33824;SDS011;20127;48.962;8.342;2023-11-21T11:04:55;10.85;;;7.78;;
33824;SDS011;20127;48.962;8.342;2023-11-21T11:08:00;14.73;;;8.73;;
33824;SDS011;20127;48.962;8.342;2023-11-21T11:11:05;14.10;;;8.80;;
33824;SDS011;20127;48.962;8.342;2023-11-21T11:14:08;12.43;;;7.72;;
33824;SDS011;20127;48.962;8.342;2023-11-21T11:17:13;12.10;;;9.10;;
33824;SDS011;20127;48.962;8.342;2023-11-21T11:20:16;12.13;;;9.05;;
33824;SDS011;20127;48.962;8.342;2023-11-21T11:23:29;14.18;;;9.48;;
33824;SDS011;20127;48.962;8.342;2023-11-21T11:26:42;9.77;;;8.63;;
33824;SDS011;20127;48.962;8.342;2023-11-21T11:29:52;13.52;;;9.43;;
33824;SDS011;20127;48.962;8.342;2023-11-21T11:33:04;14.18;;;9.55;;
33824;SDS011;20127;48.962;8.342;2023-11-21T11:36:13;13.50;;;9.10;;
33824;SDS011;20127;48.962;8.342;2023-11-21T11:39:27;14.85;;;10.20;;
33824;SDS011;20127;48.962;8.342;2023-11-21T11:42:30;14.75;;;10.68;;
33824;SDS011;20127;48.962;8.342;2023-11-21T11:45:34;20.80;;;14.75;;
33824;SDS011;20127;48.962;8.342;2023-11-21T11:48:42;18.25;;;13.30;;
33824;SDS011;20127;48.962;8.342;2023-11-21T11:51:45;21.08;;;13.70;;
33824;SDS011;20127;48.962;8.342;2023-11-21T11:54:47;18.60;;;12.63;;
33824;SDS011;20127;48.962;8.342;2023-11-21T11:57:51;14.65;;;12.00;;
33824;SDS011;20127;48.962;8.342;2023-11-21T12:00:55;13.43;;;10.38;;
33824;SDS011;20127;48.962;8.342;2023-11-21T12:07:38;14.45;;;9.00;;
33824;SDS011;20127;48.962;8.342;2023-11-21T12:10:45;12.18;;;8.88;;
33824;SDS011;20127;48.962;8.342;2023-11-21T12:13:48;15.13;;;10.30;;
33824;SDS011;20127;48.962;8.342;2023-11-21T12:16:52;13.30;;;9.93;;
33824;SDS011;20127;48.962;8.342;2023-11-21T12:20:00;18.02;;;11.48;;
33824;SDS011;20127;48.962;8.342;2023-11-21T12:23:04;15.30;;;10.48;;
33824;SDS011;20127;48.962;8.342;2023-11-21T12:26:06;13.80;;;11.35;;
33824;SDS011;20127;48.962;8.342;2023-11-21T12:29:08;13.70;;;11.10;;
33824;SDS011;20127;48.962;8.342;2023-11-21T12:32:10;14.43;;;10.65;;
33824;SDS011;20127;48.962;8.342;2023-11-21T12:35:16;14.40;;;9.02;;
33824;SDS011;20127;48.962;8.342;2023-11-21T12:38:19;14.85;;;10.73;;
33824;SDS011;20127;48.962;8.342;2023-11-21T12:41:24;14.93;;;8.77;;
33824;SDS011;20127;48.962;8.342;2023-11-21T12:44:26;15.27;;;8.90;;
33824;SDS011;20127;48.962;8.342;2023-11-21T12:47:28;13.52;;;10.02;;
33824;SDS011;20127;48.962;8.342;2023-11-21T12:50:31;12.75;;;9.05;;
33824;SDS011;20127;48.962;8.342;2023-11-21T12:53:33;11.23;;;9.43;;
33824;SDS011;20127;48.962;8.342;2023-11-21T12:56:38;9.55;;;8.18;;
33824;SDS011;20127;48.962;8.342;2023-11-21T12:59:40;19.35;;;8.80;;
33824;SDS011;20127;48.962;8.342;2023-11-21T13:02:43;10.38;;;9.25;;
33824;SDS011;20127;48.962;8.342;2023-11-21T13:05:47;13.38;;;9.07;;
33824;SDS011;20127;48.962;8.342;2023-11-21T13:08:50;10.77;;;9.60;;
33824;SDS011;20127;48.962;8.342;2023-11-21T13:11:58;12.35;;;8.48;;
33824;SDS011;20127;48.962;8.342;2023-11-21T13:15:03;10.38;;;8.63;;
33824;SDS011;20127;48.962;8.342;2023-11-21T13:18:07;9.98;;;8.55;;
33824;SDS011;20127;48.962;8.342;2023-11-21T13:21:12;10.60;;;8.68;;
33824;SDS011;20127;48.962;8.342;2023-11-21T13:24:14;10.43;;;7.10;;
33824;SDS011;20127;48.962;8.342;2023-11-21T13:27:16;10.38;;;7.65;;
33824;SDS011;20127;48.962;8.342;2023-11-21T13:30:18;12.55;;;8.93;;
33824;SDS011;20127;48.962;8.342;2023-11-21T13:33:25;13.10;;;8.68;;
33824;SDS011;20127;48.962;8.342;2023-11-21T13:36:29;12.93;;;8.50;;
33824;SDS011;20127;48.962;8.342;2023-11-21T13:39:35;8.27;;;7.45;;
33824;SDS011;20127;48.962;8.342;2023-11-21T13:42:38;9.75;;;8.35;;
33824;SDS011;20127;48.962;8.342;2023-11-21T13:45:41;11.30;;;7.25;;
33824;SDS011;20127;48.962;8.342;2023-11-21T13:48:44;9.13;;;7.55;;
33824;SDS011;20127;48.962;8.342;2023-11-21T13:51:52;13.68;;;10.07;;
33824;SDS011;20127;48.962;8.342;2023-11-21T13:54:55;12.10;;;8.50;;
33824;SDS011;20127;48.962;8.342;2023-11-21T13:57:58;6.95;;;6.25;;
33824;SDS011;20127;48.962;8.342;2023-11-21T14:00:59;8.25;;;7.53;;
33824;SDS011;20127;48.962;8.342;2023-11-21T14:04:06;10.25;;;9.18;;
33824;SDS011;20127;48.962;8.342;2023-11-21T14:07:20;10.20;;;7.60;;
33824;SDS011;20127;48.962;8.342;2023-11-21T14:10:30;9.15;;;8.15;;
33824;SDS011;20127;48.962;8.342;2023-11-21T14:13:40;8.18;;;7.47;;
33824;SDS011;20127;48.962;8.342;2023-11-21T14:16:46;11.07;;;8.07;;
33824;SDS011;20127;48.962;8.342;2023-11-21T14:19:49;7.57;;;6.82;;
33824;SDS011;20127;48.962;8.342;2023-11-21T14:22:52;10.82;;;6.38;;
33824;SDS011;20127;48.962;8.342;2023-11-21T14:25:53;10.35;;;6.05;;
33824;SDS011;20127;48.962;8.342;2023-11-21T14:28:56;8.18;;;6.07;;
33824;SDS011;20127;48.962;8.342;2023-11-21T14:31:59;7.72;;;5.57;;
33824;SDS011;20127;48.962;8.342;2023-11-21T14:35:01;9.20;;;7.07;;
33824;SDS011;20127;48.962;8.342;2023-11-21T14:38:05;6.55;;;5.80;;
33824;SDS011;20127;48.962;8.342;2023-11-21T14:41:06;9.82;;;7.35;;
33824;SDS011;20127;48.962;8.342;2023-11-21T14:44:11;7.65;;;6.53;;
33824;SDS011;20127;48.962;8.342;2023-11-21T14:47:14;9.85;;;6.55;;
33824;SDS011;20127;48.962;8.342;2023-11-21T14:50:16;8.77;;;6.55;;
33824;SDS011;20127;48.962;8.342;2023-11-21T14:56:55;9.50;;;5.95;;
33824;SDS011;20127;48.962;8.342;2023-11-21T14:59:56;6.78;;;6.13;;
33824;SDS011;20127;48.962;8.342;2023-11-21T15:02:58;9.60;;;6.07;;
33824;SDS011;20127;48.962;8.342;2023-11-21T15:05:59;7.35;;;5.35;;
33824;SDS011;20127;48.962;8.342;2023-11-21T15:09:19;27.73;;;24.80;;
33824;SDS011;20127;48.962;8.342;2023-11-21T15:12:28;12.27;;;8.18;;
33824;SDS011;20127;48.962;8.342;2023-11-21T15:15:33;7.43;;;6.72;;
33824;SDS011;20127;48.962;8.342;2023-11-21T15:18:37;6.85;;;6.28;;
33824;SDS011;20127;48.962;8.342;2023-11-21T15:21:38;6.72;;;5.60;;
33824;SDS011;20127;48.962;8.342;2023-11-21T15:24:41;6.68;;;5.65;;
33824;SDS011;20127;48.962;8.342;2023-11-21T15:27:46;7.00;;;6.00;;
33824;SDS011;20127;48.962;8.342;2023-11-21T15:30:50;14.27;;;6.20;;
33824;SDS011;20127;48.962;8.342;2023-11-21T15:33:52;7.32;;;5.50;;
33824;SDS011;20127;48.962;8.342;2023-11-21T15:36:54;6.72;;;6.03;;
33824;SDS011;20127;48.962;8.342;2023-11-21T15:39:57;7.30;;;4.93;;
33824;SDS011;20127;48.962;8.342;2023-11-21T15:42:58;8.85;;;5.07;;
33824;SDS011;20127;48.962;8.342;2023-11-21T15:46:03;8.40;;;4.85;;
33824;SDS011;20127;48.962;8.342;2023-11-21T15:49:07;12.30;;;5.10;;
33824;SDS011;20127;48.962;8.342;2023-11-21T15:52:12;6.65;;;5.15;;
33824;SDS011;20127;48.962;8.342;2023-11-21T15:55:15;7.28;;;4.50;;
33824;SDS011;20127;48.962;8.342;2023-11-21T15:58:17;6.25;;;4.97;;
33824;SDS011;20127;48.962;8.342;2023-11-21T16:01:19;17.45;;;5.97;;
33824;SDS011;20127;48.962;8.342;2023-11-21T16:04:21;8.80;;;5.22;;
33824;SDS011;20127;48.962;8.342;2023-11-21T16:07:26;9.73;;;5.57;;
33824;SDS011;20127;48.962;8.342;2023-11-21T16:10:29;8.93;;;5.90;;
33824;SDS011;20127;48.962;8.342;2023-11-21T16:13:31;14.68;;;8.07;;
33824;SDS011;20127;48.962;8.342;2023-11-21T16:16:34;10.05;;;8.10;;
33824;SDS011;20127;48.962;8.342;2023-11-21T16:19:37;7.68;;;6.82;;
33824;SDS011;20127;48.962;8.342;2023-11-21T16:22:39;13.77;;;5.68;;
33824;SDS011;20127;48.962;8.342;2023-11-21T16:25:43;13.23;;;6.35;;
33824;SDS011;20127;48.962;8.342;2023-11-21T16:28:45;10.20;;;6.72;;
33824;SDS011;20127;48.962;8.342;2023-11-21T16:31:47;7.82;;;5.93;;
33824;SDS011;20127;48.962;8.342;2023-11-21T16:34:51;16.77;;;6.93;;
33824;SDS011;20127;48.962;8.342;2023-11-21T16:37:52;11.23;;;7.15;;
33824;SDS011;20127;48.962;8.342;2023-11-21T16:40:55;10.50;;;6.78;;
33824;SDS011;20127;48.962;8.342;2023-11-21T16:43:58;16.95;;;7.70;;
33824;SDS011;20127;48.962;8.342;2023-11-21T16:47:00;11.27;;;6.90;;
33824;SDS011;20127;48.962;8.342;2023-11-21T16:50:05;12.32;;;6.65;;
33824;SDS011;20127;48.962;8.342;2023-11-21T16:53:08;6.55;;;5.57;;
33824;SDS011;20127;48.962;8.342;2023-11-21T16:56:11;9.23;;;6.43;;
33824;SDS011;20127;48.962;8.342;2023-11-21T16:59:13;8.27;;;4.32;;
33824;SDS011;20127;48.962;8.342;2023-11-21T17:02:14;9.85;;;6.05;;
33824;SDS011;20127;48.962;8.342;2023-11-21T17:05:16;14.00;;;10.80;;
33824;SDS011;20127;48.962;8.342;2023-11-21T17:08:20;13.48;;;6.25;;
33824;SDS011;20127;48.962;8.342;2023-11-21T17:11:23;12.63;;;5.78;;
33824;SDS011;20127;48.962;8.342;2023-11-21T17:14:24;12.90;;;5.68;;
33824;SDS011;20127;48.962;8.342;2023-11-21T17:17:26;10.85;;;5.70;;
33824;SDS011;20127;48.962;8.342;2023-11-21T17:20:28;12.00;;;5.22;;
33824;SDS011;20127;48.962;8.342;2023-11-21T17:23:30;9.90;;;5.47;;
33824;SDS011;20127;48.962;8.342;2023-11-21T17:26:33;11.90;;;6.70;;
33824;SDS011;20127;48.962;8.342;2023-11-21T17:29:35;10.70;;;6.88;;
33824;SDS011;20127;48.962;8.342;2023-11-21T17:32:37;9.25;;;6.93;;
33824;SDS011;20127;48.962;8.342;2023-11-21T17:35:38;8.75;;;5.25;;
33824;SDS011;20127;48.962;8.342;2023-11-21T17:38:41;7.18;;;6.25;;
33824;SDS011;20127;48.962;8.342;2023-11-21T17:41:44;11.15;;;6.90;;
33824;SDS011;20127;48.962;8.342;2023-11-21T17:44:46;13.55;;;5.97;;
33824;SDS011;20127;48.962;8.342;2023-11-21T17:47:48;19.42;;;5.40;;
33824;SDS011;20127;48.962;8.342;2023-11-21T17:50:49;12.27;;;5.97;;
33824;SDS011;20127;48.962;8.342;2023-11-21T17:53:51;10.20;;;6.63;;
33824;SDS011;20127;48.962;8.342;2023-11-21T17:56:59;11.70;;;7.20;;
33824;SDS011;20127;48.962;8.342;2023-11-21T18:00:01;9.85;;;6.28;;
33824;SDS011;20127;48.962;8.342;2023-11-21T18:03:05;11.95;;;7.65;;
33824;SDS011;20127;48.962;8.342;2023-11-21T18:06:07;12.55;;;8.40;;
33824;SDS011;20127;48.962;8.342;2023-11-21T18:09:12;11.10;;;7.43;;
33824;SDS011;20127;48.962;8.342;2023-11-21T18:12:16;15.13;;;10.20;;
33824;SDS011;20127;48.962;8.342;2023-11-21T18:15:20;19.42;;;9.65;;
33824;SDS011;20127;48.962;8.342;2023-11-21T18:18:22;20.70;;;10.15;;